Time,TemperatureF,DewpointF,PressureIn,WindDirection,WindDirectionDegrees,WindSpeedMPH,WindSpeedGustMPH,Humidity,HourlyPrecipIn,Conditions,Clouds,dailyrainin,SoftwareType,DateUTC
2013-03-19 00:00:00,34.2,19.2,30.01,NNE,23,6.5,7.6,54,0.00,,,0.00,WUHU216HW,2013-03-19 05:00:00,
2013-03-19 00:06:00,33.8,18.4,30.01,NNE,23,4.7,7.6,53,0.00,,,0.00,WUHU216HW,2013-03-19 05:06:00,
2013-03-19 00:10:00,34.0,18.5,30.01,NNE,23,5.1,7.6,53,0.00,,,0.00,WUHU216HW,2013-03-19 05:10:00,
2013-03-19 00:15:00,33.8,18.4,30.01,North,0,3.4,6.0,53,0.00,,,0.00,WUHU216HW,2013-03-19 05:15:00,
2013-03-19 00:20:00,33.5,18.1,30.01,NNE,23,4.5,4.9,53,0.00,,,0.00,WUHU216HW,2013-03-19 05:20:00,
2013-03-19 00:25:00,33.3,18.4,30.03,North,0,2.5,4.5,54,0.00,,,0.00,WUHU216HW,2013-03-19 05:25:00,
2013-03-19 00:30:00,33.1,18.2,30.02,NNE,23,4.9,5.4,54,0.00,,,0.00,WUHU216HW,2013-03-19 05:30:00,
2013-03-19 00:35:00,32.8,17.8,30.02,North,0,4.0,5.4,54,0.00,,,0.00,WUHU216HW,2013-03-19 05:35:00,
2013-03-19 00:40:00,32.6,18.1,30.03,North,0,1.6,4.0,55,0.00,,,0.00,WUHU216HW,2013-03-19 05:40:00,
2013-03-19 00:45:00,31.7,17.3,30.04,NW,315,0.4,3.4,55,0.00,,,0.00,WUHU216HW,2013-03-19 05:45:00,
2013-03-19 00:50:00,30.6,16.7,30.05,NNW,338,0.9,1.8,56,0.00,,,0.00,WUHU216HW,2013-03-19 05:50:00,
2013-03-19 00:55:00,30.1,17.0,30.05,NNW,338,0.7,1.1,58,0.00,,,0.00,WUHU216HW,2013-03-19 05:55:00,
2013-03-19 01:00:00,29.5,16.6,30.05,NW,315,0.4,1.1,58,0.00,,,0.00,WUHU216HW,2013-03-19 06:00:00,
2013-03-19 01:05:00,29.3,16.4,30.06,WNW,293,0.0,0.7,58,0.00,,,0.00,WUHU216HW,2013-03-19 06:05:00,
2013-03-19 01:10:00,28.6,16.1,30.06,WNW,293,0.0,0.4,59,0.00,,,0.00,WUHU216HW,2013-03-19 06:10:00,
2013-03-19 01:15:00,27.9,15.4,30.06,WNW,293,0.0,0.4,59,0.00,,,0.00,WUHU216HW,2013-03-19 06:15:00,
2013-03-19 01:20:00,27.4,16.0,30.06,WSW,248,1.1,1.1,62,0.00,,,0.00,WUHU216HW,2013-03-19 06:20:00,
2013-03-19 01:26:00,27.0,15.7,30.06,SSW,203,1.1,1.1,62,0.00,,,0.00,WUHU216HW,2013-03-19 06:26:00,
2013-03-19 01:31:00,26.6,15.3,30.05,SSW,203,0.0,1.1,62,0.00,,,0.00,WUHU216HW,2013-03-19 06:31:00,
2013-03-19 01:36:00,26.5,15.5,30.05,SSW,203,0.0,0.9,63,0.00,,,0.00,WUHU216HW,2013-03-19 06:36:00,
2013-03-19 01:42:00,26.6,16.4,30.06,SSW,203,0.0,0.0,65,0.00,,,0.00,WUHU216HW,2013-03-19 06:42:00,
2013-03-19 01:47:00,26.8,15.8,30.05,NNE,23,1.3,1.8,63,0.00,,,0.00,WUHU216HW,2013-03-19 06:47:00,
2013-03-19 01:52:00,26.1,14.8,30.04,East,90,0.4,1.8,62,0.00,,,0.00,WUHU216HW,2013-03-19 06:52:00,
2013-03-19 01:57:00,25.0,14.9,30.05,SSW,203,1.1,1.6,65,0.00,,,0.00,WUHU216HW,2013-03-19 06:57:00,
2013-03-19 02:02:00,24.8,15.0,30.05,SSW,203,0.2,1.6,66,0.00,,,0.00,WUHU216HW,2013-03-19 07:02:00,
2013-03-19 02:07:00,24.8,14.7,30.05,SSW,203,0.0,1.1,65,0.00,,,0.00,WUHU216HW,2013-03-19 07:07:00,
2013-03-19 02:12:00,24.8,15.4,30.04,SSW,203,0.0,0.0,67,0.00,,,0.00,WUHU216HW,2013-03-19 07:12:00,
2013-03-19 02:17:00,25.0,15.6,30.04,SSW,203,0.9,0.9,67,0.00,,,0.00,WUHU216HW,2013-03-19 07:17:00,
2013-03-19 02:22:00,25.0,15.2,30.04,SSW,203,1.1,1.1,66,0.00,,,0.00,WUHU216HW,2013-03-19 07:22:00,
2013-03-19 02:27:00,24.8,15.4,30.04,SSW,203,1.1,1.1,67,0.00,,,0.00,WUHU216HW,2013-03-19 07:27:00,
2013-03-19 02:32:00,24.8,16.0,30.05,SW,225,0.4,1.1,69,0.00,,,0.00,WUHU216HW,2013-03-19 07:32:00,
2013-03-19 02:37:00,25.0,16.6,30.05,SW,225,0.0,0.9,70,0.00,,,0.00,WUHU216HW,2013-03-19 07:37:00,
2013-03-19 02:42:00,25.0,16.2,30.05,SW,225,0.9,2.5,69,0.00,,,0.00,WUHU216HW,2013-03-19 07:42:00,
2013-03-19 02:47:00,24.5,15.8,30.05,SW,225,0.0,2.5,69,0.00,,,0.00,WUHU216HW,2013-03-19 07:47:00,
2013-03-19 02:52:00,23.8,14.7,30.05,SW,225,0.7,0.9,68,0.00,,,0.00,WUHU216HW,2013-03-19 07:52:00,
2013-03-19 02:57:00,23.6,15.2,30.05,SW,225,0.4,1.1,70,0.00,,,0.00,WUHU216HW,2013-03-19 07:57:00,
2013-03-19 03:02:00,23.8,15.4,30.05,SW,225,1.1,1.1,70,0.00,,,0.00,WUHU216HW,2013-03-19 08:02:00,
2013-03-19 03:07:00,23.9,15.6,30.06,SW,225,0.0,1.1,70,0.00,,,0.00,WUHU216HW,2013-03-19 08:07:00,
2013-03-19 03:12:00,24.1,15.4,30.06,SW,225,0.0,1.1,69,0.00,,,0.00,WUHU216HW,2013-03-19 08:12:00,
2013-03-19 03:17:00,24.5,16.4,30.06,SW,225,0.7,0.7,71,0.00,,,0.00,WUHU216HW,2013-03-19 08:17:00,
2013-03-19 03:22:00,24.8,17.0,30.07,NW,315,2.0,2.0,72,0.00,,,0.00,WUHU216HW,2013-03-19 08:22:00,
2013-03-19 03:27:00,25.6,17.7,30.06,WNW,293,0.2,2.5,72,0.00,,,0.00,WUHU216HW,2013-03-19 08:27:00,
2013-03-19 03:32:00,25.6,17.7,30.06,NW,315,0.2,2.5,72,0.00,,,0.00,WUHU216HW,2013-03-19 08:32:00,
2013-03-19 03:37:00,25.6,17.5,30.06,NW,315,1.8,1.8,71,0.00,,,0.00,WUHU216HW,2013-03-19 08:37:00,
2013-03-19 03:42:00,25.6,17.5,30.06,West,270,0.0,1.8,71,0.00,,,0.00,WUHU216HW,2013-03-19 08:42:00,
2013-03-19 03:47:00,25.6,17.7,30.06,WNW,293,1.3,1.8,72,0.00,,,0.00,WUHU216HW,2013-03-19 08:47:00,
2013-03-19 03:52:00,26.1,18.3,30.06,West,270,0.4,1.8,72,0.00,,,0.00,WUHU216HW,2013-03-19 08:52:00,
2013-03-19 03:57:00,25.7,18.3,30.06,West,270,0.0,1.8,73,0.00,,,0.00,WUHU216HW,2013-03-19 08:57:00,
2013-03-19 04:02:00,25.4,17.6,30.05,West,270,0.0,1.1,72,0.00,,,0.00,WUHU216HW,2013-03-19 09:02:00,
2013-03-19 04:07:00,25.4,17.9,30.05,WNW,293,0.9,0.9,73,0.00,,,0.00,WUHU216HW,2013-03-19 09:07:00,
2013-03-19 04:12:00,25.6,18.1,30.06,NW,315,1.6,1.6,73,0.00,,,0.00,WUHU216HW,2013-03-19 09:12:00,
2013-03-19 04:17:00,26.3,19.1,30.04,ENE,68,0.0,1.6,74,0.00,,,0.00,WUHU216HW,2013-03-19 09:17:00,
2013-03-19 04:22:00,26.6,19.5,30.04,ENE,68,0.0,1.6,74,0.00,,,0.00,WUHU216HW,2013-03-19 09:22:00,
2013-03-19 04:27:00,26.6,18.8,30.03,ENE,68,0.0,0.0,72,0.00,,,0.00,WUHU216HW,2013-03-19 09:27:00,
2013-03-19 04:32:00,26.5,18.9,30.04,SSE,158,0.0,0.7,73,0.00,,,0.00,WUHU216HW,2013-03-19 09:32:00,
2013-03-19 04:37:00,26.3,18.7,30.05,SSE,158,0.0,0.7,73,0.00,,,0.00,WUHU216HW,2013-03-19 09:37:00,
2013-03-19 04:42:00,26.3,19.7,30.05,SSE,158,0.0,0.0,76,0.00,,,0.00,WUHU216HW,2013-03-19 09:42:00,
2013-03-19 04:47:00,26.1,19.2,30.05,SSE,158,0.0,0.0,75,0.00,,,0.00,WUHU216HW,2013-03-19 09:47:00,
2013-03-19 04:52:00,25.7,18.8,30.05,SW,225,1.1,2.0,75,0.00,,,0.00,WUHU216HW,2013-03-19 09:52:00,
2013-03-19 04:57:00,25.4,18.6,30.06,SW,225,1.1,2.0,75,0.00,,,0.00,WUHU216HW,2013-03-19 09:57:00,
2013-03-19 05:02:00,25.6,19.0,30.06,SW,225,1.3,1.8,76,0.00,,,0.00,WUHU216HW,2013-03-19 10:02:00,
2013-03-19 05:07:00,26.1,19.8,30.06,SW,225,1.1,2.0,77,0.00,,,0.00,WUHU216HW,2013-03-19 10:07:00,
2013-03-19 05:12:00,26.6,20.0,30.06,SW,225,1.1,2.0,76,0.00,,,0.00,WUHU216HW,2013-03-19 10:12:00,
2013-03-19 05:18:00,27.0,20.3,30.06,SW,225,2.5,2.7,76,0.00,,,0.00,WUHU216HW,2013-03-19 10:18:00,
2013-03-19 05:23:00,27.5,21.3,30.06,SSW,203,0.0,2.7,77,0.00,,,0.00,WUHU216HW,2013-03-19 10:23:00,
2013-03-19 05:28:00,27.7,20.8,30.06,SSW,203,0.0,0.9,75,0.00,,,0.00,WUHU216HW,2013-03-19 10:28:00,
2013-03-19 05:33:00,28.1,21.4,30.06,SSW,203,0.9,0.9,76,0.00,,,0.00,WUHU216HW,2013-03-19 10:33:00,
2013-03-19 05:38:00,28.4,21.8,30.07,WSW,248,1.1,1.6,76,0.00,,,0.00,WUHU216HW,2013-03-19 10:38:00,
2013-03-19 05:43:00,28.6,21.7,30.07,SW,225,1.3,1.8,75,0.00,,,0.00,WUHU216HW,2013-03-19 10:43:00,
2013-03-19 05:48:00,28.8,21.9,30.07,SW,225,0.9,1.8,75,0.00,,,0.00,WUHU216HW,2013-03-19 10:48:00,
2013-03-19 05:53:00,29.0,22.1,30.07,SSW,203,0.9,1.3,75,0.00,,,0.00,WUHU216HW,2013-03-19 10:53:00,
2013-03-19 05:58:00,29.2,22.5,30.06,SSW,203,1.1,1.1,76,0.00,,,0.00,WUHU216HW,2013-03-19 10:58:00,
2013-03-19 06:03:00,29.3,22.7,30.07,SW,225,0.4,1.6,76,0.00,,,0.00,WUHU216HW,2013-03-19 11:03:00,
2013-03-19 06:08:00,29.5,22.9,30.07,SW,225,0.2,1.6,76,0.00,,,0.00,WUHU216HW,2013-03-19 11:08:00,
2013-03-19 06:13:00,29.7,22.4,30.08,SW,225,0.0,0.4,74,0.00,,,0.00,WUHU216HW,2013-03-19 11:13:00,
2013-03-19 06:18:00,29.7,22.7,30.07,SW,225,0.0,0.0,75,0.00,,,0.00,WUHU216HW,2013-03-19 11:18:00,
2013-03-19 06:23:00,29.9,22.9,30.08,SW,225,1.1,1.3,75,0.00,,,0.00,WUHU216HW,2013-03-19 11:23:00,
2013-03-19 06:28:00,30.1,23.0,30.08,SW,225,1.1,1.3,75,0.00,,,0.00,WUHU216HW,2013-03-19 11:28:00,
2013-03-19 06:33:00,30.2,23.2,30.08,SW,225,2.2,2.5,75,0.00,,,0.00,WUHU216HW,2013-03-19 11:33:00,
2013-03-19 06:38:00,30.4,23.4,30.09,SW,225,2.5,2.5,75,0.00,,,0.00,WUHU216HW,2013-03-19 11:38:00,
2013-03-19 06:43:00,30.6,23.6,30.09,SW,225,0.2,2.7,75,0.00,,,0.00,WUHU216HW,2013-03-19 11:43:00,
2013-03-19 06:48:00,30.8,23.4,30.09,WSW,248,0.7,2.7,74,0.00,,,0.00,WUHU216HW,2013-03-19 11:48:00,
2013-03-19 06:53:00,31.0,23.6,30.08,SW,225,1.1,2.2,74,0.00,,,0.00,WUHU216HW,2013-03-19 11:53:00,
2013-03-19 06:58:00,31.1,23.5,30.08,SSE,158,0.0,1.8,73,0.00,,,0.00,WUHU216HW,2013-03-19 11:58:00,
2013-03-19 07:03:00,31.3,23.7,30.07,SW,225,1.8,1.8,73,0.00,,,0.00,WUHU216HW,2013-03-19 12:03:00,
2013-03-19 07:08:00,31.5,24.1,30.08,SW,225,1.1,2.0,74,0.00,,,0.00,WUHU216HW,2013-03-19 12:08:00,
2013-03-19 07:13:00,31.7,24.0,30.08,SW,225,2.5,2.5,73,0.00,,,0.00,WUHU216HW,2013-03-19 12:13:00,
2013-03-19 07:18:00,31.9,24.2,30.08,SW,225,1.1,2.5,73,0.00,,,0.00,WUHU216HW,2013-03-19 12:18:00,
2013-03-19 07:23:00,31.9,24.2,30.09,SSW,203,1.1,1.8,73,0.00,,,0.00,WUHU216HW,2013-03-19 12:23:00,
2013-03-19 07:28:00,31.9,24.2,30.09,SW,225,0.0,1.8,73,0.00,,,0.00,WUHU216HW,2013-03-19 12:28:00,
2013-03-19 07:33:00,31.9,24.2,30.09,South,180,1.1,1.1,73,0.00,,,0.00,WUHU216HW,2013-03-19 12:33:00,
2013-03-19 07:38:00,31.9,24.2,30.09,SSW,203,2.0,2.0,73,0.00,,,0.00,WUHU216HW,2013-03-19 12:38:00,
2013-03-19 07:43:00,31.7,24.3,30.09,SSE,158,1.3,2.0,74,0.00,,,0.00,WUHU216HW,2013-03-19 12:43:00,
2013-03-19 07:48:00,31.7,24.0,30.09,East,90,0.4,1.3,73,0.00,,,0.00,WUHU216HW,2013-03-19 12:48:00,
2013-03-19 07:53:00,31.9,23.2,30.09,East,90,0.7,1.6,70,0.00,,,0.00,WUHU216HW,2013-03-19 12:53:00,
2013-03-19 07:58:00,32.0,23.8,30.10,ESE,113,0.0,1.6,71,0.00,,,0.00,WUHU216HW,2013-03-19 12:58:00,
2013-03-19 08:03:00,32.2,23.9,30.11,WSW,248,1.8,1.8,71,0.00,,,0.00,WUHU216HW,2013-03-19 13:03:00,
2013-03-19 08:08:00,32.4,24.0,30.11,WSW,248,0.4,1.8,71,0.00,,,0.00,WUHU216HW,2013-03-19 13:08:00,
2013-03-19 08:13:00,32.6,24.2,30.11,SW,225,1.6,2.2,71,0.00,,,0.00,WUHU216HW,2013-03-19 13:13:00,
2013-03-19 08:18:00,32.8,24.0,30.11,SW,225,0.9,2.2,70,0.00,,,0.00,WUHU216HW,2013-03-19 13:18:00,
2013-03-19 08:23:00,32.9,24.2,30.12,SW,225,0.0,1.3,70,0.00,,,0.00,WUHU216HW,2013-03-19 13:23:00,
2013-03-19 08:28:00,33.3,24.6,30.12,SW,225,0.0,0.0,70,0.00,,,0.00,WUHU216HW,2013-03-19 13:28:00,
2013-03-19 08:33:00,33.3,24.8,30.12,ESE,113,0.0,0.4,71,0.00,,,0.00,WUHU216HW,2013-03-19 13:33:00,
2013-03-19 08:38:00,33.1,24.4,30.12,ESE,113,0.0,0.4,70,0.00,,,0.00,WUHU216HW,2013-03-19 13:38:00,
2013-03-19 08:43:00,33.3,24.6,30.12,SE,135,1.1,1.1,70,0.00,,,0.00,WUHU216HW,2013-03-19 13:43:00,
2013-03-19 08:48:00,33.5,25.0,30.12,SE,135,1.8,1.8,71,0.00,,,0.00,WUHU216HW,2013-03-19 13:48:00,
2013-03-19 08:53:00,33.7,25.2,30.11,SW,225,1.3,1.8,71,0.00,,,0.00,WUHU216HW,2013-03-19 13:53:00,
2013-03-19 08:58:00,34.0,25.6,30.12,SW,225,2.2,3.4,71,0.00,,,0.00,WUHU216HW,2013-03-19 13:58:00,
2013-03-19 09:03:00,34.4,25.9,30.13,SSW,203,2.2,3.4,71,0.00,,,0.00,WUHU216HW,2013-03-19 14:03:00,
2013-03-19 09:08:00,34.6,26.1,30.13,SSW,203,2.0,2.7,71,0.00,,,0.00,WUHU216HW,2013-03-19 14:08:00,
2013-03-19 09:13:00,34.7,25.9,30.14,SW,225,1.8,3.6,70,0.00,,,0.00,WUHU216HW,2013-03-19 14:13:00,
2013-03-19 09:18:00,35.1,26.3,30.13,SSW,203,1.8,3.6,70,0.00,,,0.00,WUHU216HW,2013-03-19 14:18:00,
2013-03-19 09:23:00,35.6,26.5,30.13,SSW,203,1.8,3.4,69,0.00,,,0.00,WUHU216HW,2013-03-19 14:23:00,
2013-03-19 09:28:00,36.2,26.7,30.13,SW,225,2.9,3.8,68,0.00,,,0.00,WUHU216HW,2013-03-19 14:28:00,
2013-03-19 09:33:00,36.7,27.2,30.14,South,180,2.9,3.8,68,0.00,,,0.00,WUHU216HW,2013-03-19 14:33:00,
2013-03-19 09:38:00,37.3,26.6,30.14,SW,225,3.8,3.8,65,0.00,,,0.00,WUHU216HW,2013-03-19 14:38:00,
2013-03-19 09:43:00,37.3,26.2,30.14,SSW,203,1.1,4.3,64,0.00,,,0.00,WUHU216HW,2013-03-19 14:43:00,
2013-03-19 09:48:00,37.4,26.0,30.14,SW,225,2.0,4.3,63,0.00,,,0.00,WUHU216HW,2013-03-19 14:48:00,
2013-03-19 09:53:00,37.8,26.6,30.14,SW,225,4.0,4.0,64,0.00,,,0.00,WUHU216HW,2013-03-19 14:53:00,
2013-03-19 09:58:00,38.2,26.7,30.14,SSW,203,4.3,4.5,63,0.00,,,0.00,WUHU216HW,2013-03-19 14:58:00,
2013-03-19 10:03:00,38.2,25.8,30.14,SW,225,1.8,4.5,61,0.00,,,0.00,WUHU216HW,2013-03-19 15:03:00,
2013-03-19 10:08:00,38.5,26.6,30.15,SW,225,2.9,4.0,62,0.00,,,0.00,WUHU216HW,2013-03-19 15:08:00,
2013-03-19 10:13:00,38.9,26.6,30.15,SW,225,3.6,3.8,61,0.00,,,0.00,WUHU216HW,2013-03-19 15:13:00,
2013-03-19 10:18:00,39.2,26.8,30.15,SW,225,3.4,4.5,61,0.00,,,0.00,WUHU216HW,2013-03-19 15:18:00,
2013-03-19 10:23:00,39.6,26.8,30.16,SSW,203,3.4,4.7,60,0.00,,,0.00,WUHU216HW,2013-03-19 15:23:00,
2013-03-19 10:28:00,39.4,26.2,30.16,SSW,203,3.8,4.7,59,0.00,,,0.00,WUHU216HW,2013-03-19 15:28:00,
2013-03-19 10:33:00,39.2,25.6,30.16,SW,225,3.4,3.8,58,0.00,,,0.00,WUHU216HW,2013-03-19 15:33:00,
2013-03-19 10:38:00,39.4,25.7,30.16,SW,225,2.0,3.4,58,0.00,,,0.00,WUHU216HW,2013-03-19 15:38:00,
2013-03-19 10:43:00,39.4,25.4,30.17,SSW,203,0.4,3.6,57,0.00,,,0.00,WUHU216HW,2013-03-19 15:43:00,
2013-03-19 10:48:00,39.2,24.8,30.17,NW,315,5.6,5.6,56,0.00,,,0.00,WUHU216HW,2013-03-19 15:48:00,
2013-03-19 10:53:00,38.2,25.0,30.17,WNW,293,1.6,6.5,59,0.00,,,0.00,WUHU216HW,2013-03-19 15:53:00,
2013-03-19 10:58:00,37.8,25.9,30.17,WSW,248,2.5,6.5,62,0.00,,,0.00,WUHU216HW,2013-03-19 15:58:00,
2013-03-19 11:03:00,38.0,26.5,30.17,WNW,293,2.5,3.6,63,0.00,,,0.00,WUHU216HW,2013-03-19 16:03:00,
2013-03-19 11:08:00,38.0,26.8,30.17,WNW,293,2.2,4.0,64,0.00,,,0.00,WUHU216HW,2013-03-19 16:08:00,
2013-03-19 11:13:00,38.2,27.4,30.17,NW,315,1.8,4.0,65,0.00,,,0.00,WUHU216HW,2013-03-19 16:13:00,
2013-03-19 11:18:00,38.0,28.0,30.17,WNW,293,0.7,2.7,67,0.00,,,0.00,WUHU216HW,2013-03-19 16:18:00,
2013-03-19 11:23:00,38.5,29.3,30.17,SSE,158,1.1,1.8,69,0.00,,,0.00,WUHU216HW,2013-03-19 16:23:00,
2013-03-19 11:28:00,39.2,29.5,30.17,SSW,203,2.5,3.6,68,0.00,,,0.00,WUHU216HW,2013-03-19 16:28:00,
2013-03-19 11:34:00,39.2,29.5,30.17,SW,225,4.5,4.7,68,0.00,,,0.00,WUHU216HW,2013-03-19 16:34:00,
2013-03-19 11:39:00,38.9,29.9,30.18,SW,225,3.6,6.0,70,0.00,,,0.00,WUHU216HW,2013-03-19 16:39:00,
2013-03-19 11:44:00,38.2,29.6,30.18,WSW,248,4.3,6.0,71,0.00,,,0.00,WUHU216HW,2013-03-19 16:44:00,
2013-03-19 11:49:00,37.6,29.8,30.18,WSW,248,2.0,4.7,73,0.00,,,0.00,WUHU216HW,2013-03-19 16:49:00,
2013-03-19 11:54:00,37.4,29.9,30.18,SSW,203,3.1,6.0,74,0.00,,,0.00,WUHU216HW,2013-03-19 16:54:00,
2013-03-19 11:59:00,37.1,29.9,30.18,SW,225,1.8,6.0,75,0.00,,,0.00,WUHU216HW,2013-03-19 16:59:00,
2013-03-19 12:04:00,36.7,30.2,30.18,SW,225,3.1,4.7,77,0.00,,,0.00,WUHU216HW,2013-03-19 17:04:00,
2013-03-19 12:09:00,36.4,29.8,30.18,SW,225,4.3,4.3,77,0.00,,,0.00,WUHU216HW,2013-03-19 17:09:00,
2013-03-19 12:14:00,36.2,30.0,30.18,South,180,1.8,4.3,78,0.00,,,0.00,WUHU216HW,2013-03-19 17:14:00,
2013-03-19 12:19:00,36.2,30.0,30.18,SSW,203,3.6,4.3,78,0.00,,,0.00,WUHU216HW,2013-03-19 17:19:00,
2013-03-19 12:24:00,36.2,30.2,30.18,SW,225,2.5,3.6,79,0.00,,,0.00,WUHU216HW,2013-03-19 17:24:00,
2013-03-19 12:29:00,36.0,30.4,30.19,SSW,203,2.9,3.4,80,0.00,,,0.00,WUHU216HW,2013-03-19 17:29:00,
2013-03-19 12:34:00,36.0,30.1,30.19,South,180,2.2,3.1,79,0.00,,,0.00,WUHU216HW,2013-03-19 17:34:00,
2013-03-19 12:39:00,35.8,29.9,30.19,SSW,203,2.5,3.1,79,0.00,,,0.00,WUHU216HW,2013-03-19 17:39:00,
2013-03-19 12:44:00,35.6,29.7,30.19,SSW,203,0.9,2.5,79,0.00,,,0.00,WUHU216HW,2013-03-19 17:44:00,
2013-03-19 12:49:00,35.6,29.7,30.19,SSW,203,0.0,2.5,79,0.00,,,0.00,WUHU216HW,2013-03-19 17:49:00,
2013-03-19 12:54:00,35.6,30.1,30.20,SSW,203,0.7,1.1,80,0.00,,,0.00,WUHU216HW,2013-03-19 17:54:00,
2013-03-19 12:59:00,35.6,30.1,30.19,SSW,203,0.4,1.1,80,0.00,,,0.00,WUHU216HW,2013-03-19 17:59:00,
2013-03-19 13:04:00,35.5,29.9,30.19,SSW,203,1.3,1.3,80,0.00,,,0.00,WUHU216HW,2013-03-19 18:04:00,
2013-03-19 13:09:00,35.3,30.0,30.19,SSW,203,0.9,1.3,81,0.00,,,0.00,WUHU216HW,2013-03-19 18:09:00,
2013-03-19 13:14:00,35.5,30.2,30.19,SSW,203,1.1,1.1,81,0.00,,,0.00,WUHU216HW,2013-03-19 18:14:00,
2013-03-19 13:19:00,35.8,30.2,30.19,SSW,203,0.0,1.1,80,0.00,,,0.00,WUHU216HW,2013-03-19 18:19:00,
2013-03-19 13:24:00,35.6,30.1,30.20,SSW,203,0.9,1.1,80,0.00,,,0.00,WUHU216HW,2013-03-19 18:24:00,
2013-03-19 13:29:00,35.6,30.3,30.20,SSW,203,0.4,1.1,81,0.00,,,0.00,WUHU216HW,2013-03-19 18:29:00,
2013-03-19 13:34:00,35.6,30.3,30.20,SSW,203,0.0,0.7,81,0.00,,,0.00,WUHU216HW,2013-03-19 18:34:00,
2013-03-19 13:39:00,35.8,30.5,30.19,SSW,203,0.0,0.4,81,0.00,,,0.00,WUHU216HW,2013-03-19 18:39:00,
2013-03-19 13:44:00,36.0,30.7,30.20,SSW,203,0.0,0.0,81,0.00,,,0.00,WUHU216HW,2013-03-19 18:44:00,
2013-03-19 13:49:00,36.0,30.7,30.20,SSW,203,0.4,0.4,81,0.00,,,0.00,WUHU216HW,2013-03-19 18:49:00,
2013-03-19 13:54:00,36.0,30.7,30.20,SSW,203,0.2,0.4,81,0.00,,,0.00,WUHU216HW,2013-03-19 18:54:00,
2013-03-19 13:59:00,36.0,31.0,30.20,SSW,203,0.0,0.2,82,0.00,,,0.00,WUHU216HW,2013-03-19 18:59:00,
2013-03-19 14:04:00,36.0,31.0,30.20,SSW,203,0.0,0.0,82,0.00,,,0.00,WUHU216HW,2013-03-19 19:04:00,
2013-03-19 14:09:00,36.0,31.0,30.19,SSW,203,0.0,0.0,82,0.00,,,0.00,WUHU216HW,2013-03-19 19:09:00,
2013-03-19 14:14:00,36.2,31.1,30.19,SSW,203,0.0,0.0,82,0.00,,,0.00,WUHU216HW,2013-03-19 19:14:00,
2013-03-19 14:19:00,36.4,31.3,30.19,SSW,203,0.0,0.0,82,0.00,,,0.00,WUHU216HW,2013-03-19 19:19:00,
2013-03-19 14:24:00,36.4,31.3,30.19,SSW,203,0.0,0.0,82,0.01,,,0.01,WUHU216HW,2013-03-19 19:24:00,
2013-03-19 14:29:00,36.4,31.1,30.19,SSW,203,0.0,0.4,81,0.01,,,0.01,WUHU216HW,2013-03-19 19:29:00,
2013-03-19 14:34:00,36.7,31.4,30.19,SSW,203,0.0,0.4,81,0.01,,,0.01,WUHU216HW,2013-03-19 19:34:00,
2013-03-19 14:39:00,37.3,32.0,30.19,SSW,203,0.0,0.0,81,0.02,,,0.02,WUHU216HW,2013-03-19 19:39:00,
2013-03-19 14:44:00,36.5,31.9,30.19,South,180,0.0,0.0,83,0.02,,,0.02,WUHU216HW,2013-03-19 19:44:00,
2013-03-19 14:49:00,36.4,31.7,30.19,South,180,0.0,0.0,83,0.03,,,0.02,WUHU216HW,2013-03-19 19:49:00,
2013-03-19 14:54:00,36.5,31.5,30.19,South,180,0.0,0.4,82,0.03,,,0.03,WUHU216HW,2013-03-19 19:54:00,
2013-03-19 14:59:00,36.7,31.7,30.19,SSW,203,0.0,0.7,82,0.03,,,0.03,WUHU216HW,2013-03-19 19:59:00,
2013-03-19 15:04:00,36.7,31.7,30.19,SSW,203,0.7,1.3,82,0.04,,,0.04,WUHU216HW,2013-03-19 20:04:00,
2013-03-19 15:09:00,36.9,31.9,30.19,SW,225,1.6,2.5,82,0.04,,,0.04,WUHU216HW,2013-03-19 20:09:00,
2013-03-19 15:14:00,36.5,31.9,30.19,SW,225,1.8,2.5,83,0.05,,,0.05,WUHU216HW,2013-03-19 20:14:00,
2013-03-19 15:19:00,36.5,32.1,30.19,SW,225,1.8,2.5,84,0.05,,,0.05,WUHU216HW,2013-03-19 20:19:00,
2013-03-19 15:24:00,36.2,31.8,30.19,SW,225,2.5,2.9,84,0.05,,,0.06,WUHU216HW,2013-03-19 20:24:00,
2013-03-19 15:29:00,36.0,31.9,30.19,WSW,248,2.2,2.9,85,0.05,,,0.06,WUHU216HW,2013-03-19 20:29:00,
2013-03-19 15:34:00,36.0,32.1,30.19,SW,225,2.5,4.0,86,0.06,,,0.07,WUHU216HW,2013-03-19 20:34:00,
2013-03-19 15:39:00,36.2,32.3,30.18,WSW,248,2.5,4.0,86,0.06,,,0.07,WUHU216HW,2013-03-19 20:39:00,
2013-03-19 15:44:00,36.2,32.3,30.18,SW,225,2.5,3.4,86,0.06,,,0.08,WUHU216HW,2013-03-19 20:44:00,
2013-03-19 15:49:00,36.4,32.5,30.18,SW,225,2.2,3.4,86,0.06,,,0.09,WUHU216HW,2013-03-19 20:49:00,
2013-03-19 15:54:00,36.4,32.5,30.18,SW,225,1.8,2.9,86,0.06,,,0.09,WUHU216HW,2013-03-19 20:54:00,
2013-03-19 15:59:00,36.7,32.9,30.18,SW,225,1.8,2.9,86,0.06,,,0.10,WUHU216HW,2013-03-19 20:59:00,
2013-03-19 16:04:00,37.1,33.2,30.18,SSW,203,1.8,2.9,86,0.07,,,0.10,WUHU216HW,2013-03-19 21:04:00,
2013-03-19 16:09:00,37.4,33.6,30.18,SW,225,1.1,2.2,86,0.06,,,0.11,WUHU216HW,2013-03-19 21:09:00,
2013-03-19 16:14:00,37.8,33.9,30.18,WSW,248,0.9,2.0,86,0.07,,,0.12,WUHU216HW,2013-03-19 21:14:00,
2013-03-19 16:19:00,38.0,34.1,30.17,WSW,248,1.1,2.5,86,0.07,,,0.12,WUHU216HW,2013-03-19 21:19:00,
2013-03-19 16:24:00,38.5,34.7,30.17,WSW,248,0.0,2.5,86,0.07,,,0.13,WUHU216HW,2013-03-19 21:24:00,
2013-03-19 16:29:00,38.7,34.6,30.17,West,270,0.7,1.6,85,0.06,,,0.13,WUHU216HW,2013-03-19 21:29:00,
2013-03-19 16:34:00,38.9,34.7,30.17,West,270,1.1,1.6,85,0.07,,,0.13,WUHU216HW,2013-03-19 21:34:00,
2013-03-19 16:39:00,39.2,35.1,30.17,NW,315,0.4,1.6,85,0.06,,,0.14,WUHU216HW,2013-03-19 21:39:00,
2013-03-19 16:44:00,39.8,35.3,30.16,West,270,0.0,1.1,84,0.05,,,0.14,WUHU216HW,2013-03-19 21:44:00,
2013-03-19 16:49:00,40.1,35.6,30.16,WSW,248,0.9,0.9,84,0.06,,,0.15,WUHU216HW,2013-03-19 21:49:00,
2013-03-19 16:54:00,40.1,35.4,30.16,SSW,203,3.1,3.1,83,0.05,,,0.15,WUHU216HW,2013-03-19 21:54:00,
2013-03-19 16:59:00,40.1,35.4,30.16,SW,225,2.5,3.4,83,0.06,,,0.16,WUHU216HW,2013-03-19 21:59:00,
2013-03-19 17:04:00,40.0,35.2,30.16,SW,225,2.2,3.8,83,0.05,,,0.16,WUHU216HW,2013-03-19 22:04:00,
2013-03-19 17:09:00,40.0,35.2,30.16,SSW,203,2.7,4.7,83,0.04,,,0.16,WUHU216HW,2013-03-19 22:09:00,
2013-03-19 17:14:00,39.8,35.3,30.16,SW,225,4.5,4.7,84,0.05,,,0.17,WUHU216HW,2013-03-19 22:14:00,
2013-03-19 17:19:00,39.8,35.3,30.16,SW,225,5.4,5.4,84,0.05,,,0.17,WUHU216HW,2013-03-19 22:19:00,
2013-03-19 17:24:00,39.6,35.5,30.16,SSW,203,3.4,6.5,85,0.04,,,0.17,WUHU216HW,2013-03-19 22:24:00,
2013-03-19 17:30:00,39.8,35.9,30.16,SW,225,7.6,7.6,86,0.05,,,0.18,WUHU216HW,2013-03-19 22:30:00,
2013-03-19 17:35:00,40.3,36.5,30.15,SW,225,5.4,7.6,86,0.04,,,0.18,WUHU216HW,2013-03-19 22:35:00,
2013-03-19 17:40:00,40.7,36.8,30.15,SW,225,3.4,5.6,86,0.05,,,0.19,WUHU216HW,2013-03-19 22:40:00,
2013-03-19 17:45:00,41.0,37.1,30.15,SW,225,6.0,6.5,86,0.04,,,0.19,WUHU216HW,2013-03-19 22:45:00,
2013-03-19 17:50:00,41.4,37.4,30.15,SW,225,6.3,6.5,86,0.04,,,0.19,WUHU216HW,2013-03-19 22:50:00,
2013-03-19 17:55:00,41.4,37.4,30.15,SW,225,4.9,6.7,86,0.04,,,0.19,WUHU216HW,2013-03-19 22:55:00,
2013-03-19 18:00:00,41.8,37.8,30.15,SSW,203,4.3,6.7,86,0.04,,,0.20,WUHU216HW,2013-03-19 23:00:00,
2013-03-19 18:05:00,41.9,38.0,30.15,SW,225,3.6,6.7,86,0.04,,,0.20,WUHU216HW,2013-03-19 23:05:00,
2013-03-19 18:10:00,41.9,37.7,30.15,SW,225,5.4,6.7,85,0.03,,,0.20,WUHU216HW,2013-03-19 23:10:00,
2013-03-19 18:15:00,41.8,37.8,30.15,SW,225,2.9,6.3,86,0.03,,,0.20,WUHU216HW,2013-03-19 23:15:00,
2013-03-19 18:20:00,41.8,37.8,30.15,SW,225,2.0,5.4,86,0.03,,,0.20,WUHU216HW,2013-03-19 23:20:00,
2013-03-19 18:25:00,41.6,37.1,30.15,WSW,248,5.4,5.4,84,0.02,,,0.20,WUHU216HW,2013-03-19 23:25:00,
2013-03-19 18:30:00,41.6,37.1,30.15,SW,225,4.0,5.4,84,0.03,,,0.21,WUHU216HW,2013-03-19 23:30:00,
2013-03-19 18:35:00,41.6,37.4,30.15,SW,225,2.2,4.0,85,0.03,,,0.21,WUHU216HW,2013-03-19 23:35:00,
2013-03-19 18:40:00,41.8,37.8,30.15,SW,225,2.0,4.0,86,0.02,,,0.21,WUHU216HW,2013-03-19 23:40:00,
2013-03-19 18:45:00,41.4,37.2,30.15,SW,225,3.1,4.0,85,0.02,,,0.21,WUHU216HW,2013-03-19 23:45:00,
2013-03-19 18:50:00,41.0,36.8,30.15,SW,225,2.5,4.0,85,0.02,,,0.21,WUHU216HW,2013-03-19 23:50:00,
2013-03-19 18:55:00,40.7,36.5,30.15,WSW,248,1.8,3.8,85,0.01,,,0.21,WUHU216HW,2013-03-19 23:55:00,
2013-03-19 19:00:00,40.3,36.1,30.15,WSW,248,2.7,3.6,85,0.01,,,0.21,WUHU216HW,2013-03-20 00:00:00,
2013-03-19 19:05:00,40.1,35.9,30.15,WSW,248,2.9,2.9,85,0.01,,,0.21,WUHU216HW,2013-03-20 00:05:00,
2013-03-19 19:10:00,39.8,35.9,30.15,WSW,248,1.3,2.9,86,0.01,,,0.21,WUHU216HW,2013-03-20 00:10:00,
2013-03-19 19:15:00,39.6,35.7,30.15,WSW,248,1.1,2.0,86,0.01,,,0.21,WUHU216HW,2013-03-20 00:15:00,
2013-03-19 19:20:00,39.2,35.4,30.15,WSW,248,1.1,1.3,86,0.01,,,0.21,WUHU216HW,2013-03-20 00:20:00,
2013-03-19 19:25:00,38.9,35.3,30.16,WSW,248,1.1,1.8,87,0.00,,,0.21,WUHU216HW,2013-03-20 00:25:00,
2013-03-19 19:30:00,38.5,34.7,30.15,SW,225,1.1,1.8,86,0.00,,,0.21,WUHU216HW,2013-03-20 00:30:00,
2013-03-19 19:35:00,37.6,33.8,30.15,SW,225,0.9,1.3,86,0.00,,,0.21,WUHU216HW,2013-03-20 00:35:00,
2013-03-19 19:40:00,37.3,33.7,30.16,NW,315,0.9,1.8,87,0.00,,,0.21,WUHU216HW,2013-03-20 00:40:00,
2013-03-19 19:45:00,37.3,33.7,30.16,NW,315,0.0,1.8,87,0.00,,,0.21,WUHU216HW,2013-03-20 00:45:00,
2013-03-19 19:50:00,36.7,33.1,30.16,NW,315,0.0,0.9,87,0.00,,,0.21,WUHU216HW,2013-03-20 00:50:00,
2013-03-19 19:55:00,35.6,31.5,30.16,SW,225,1.3,1.3,85,0.00,,,0.21,WUHU216HW,2013-03-20 00:55:00,
2013-03-19 20:00:00,35.3,31.7,30.16,WSW,248,1.1,1.6,87,0.00,,,0.21,WUHU216HW,2013-03-20 01:00:00,
2013-03-19 20:05:00,35.5,32.5,30.16,WSW,248,1.1,1.8,89,0.00,,,0.21,WUHU216HW,2013-03-20 01:05:00,
2013-03-19 20:10:00,35.6,32.7,30.17,West,270,1.8,1.8,89,0.00,,,0.21,WUHU216HW,2013-03-20 01:10:00,
2013-03-19 20:15:00,35.6,32.7,30.16,SW,225,0.9,1.8,89,0.00,,,0.21,WUHU216HW,2013-03-20 01:15:00,
2013-03-19 20:20:00,34.9,32.0,30.17,WSW,248,0.7,1.8,89,0.00,,,0.21,WUHU216HW,2013-03-20 01:20:00,
2013-03-19 20:25:00,34.2,31.2,30.16,WSW,248,1.1,1.3,89,0.00,,,0.21,WUHU216HW,2013-03-20 01:25:00,
2013-03-19 20:30:00,34.2,31.2,30.17,WSW,248,0.9,1.1,89,0.00,,,0.21,WUHU216HW,2013-03-20 01:30:00,
2013-03-19 20:35:00,33.8,30.9,30.17,WSW,248,0.9,1.1,89,0.00,,,0.21,WUHU216HW,2013-03-20 01:35:00,
2013-03-19 20:40:00,33.7,30.7,30.17,WSW,248,1.1,1.8,89,0.00,,,0.21,WUHU216HW,2013-03-20 01:40:00,
2013-03-19 20:45:00,33.5,30.5,30.18,West,270,1.3,2.7,89,0.00,,,0.21,WUHU216HW,2013-03-20 01:45:00,
2013-03-19 20:50:00,33.3,30.3,30.18,West,270,1.1,2.7,89,0.00,,,0.21,WUHU216HW,2013-03-20 01:50:00,
2013-03-19 20:55:00,33.1,30.3,30.18,West,270,0.0,2.5,89,0.00,,,0.21,WUHU216HW,2013-03-20 01:55:00,
2013-03-19 21:00:00,32.8,30.2,30.18,SE,135,0.7,0.9,90,0.00,,,0.21,WUHU216HW,2013-03-20 02:00:00,
2013-03-19 21:05:00,32.9,30.1,30.18,SE,135,1.3,1.3,89,0.00,,,0.21,WUHU216HW,2013-03-20 02:05:00,
2013-03-19 21:10:00,32.8,29.9,30.19,SE,135,1.1,1.3,89,0.00,,,0.21,WUHU216HW,2013-03-20 02:10:00,
2013-03-19 21:15:00,32.0,29.0,30.19,South,180,0.9,1.8,88,0.00,,,0.21,WUHU216HW,2013-03-20 02:15:00,
2013-03-19 21:20:00,31.9,29.1,30.19,South,180,0.7,1.8,89,0.00,,,0.21,WUHU216HW,2013-03-20 02:20:00,
2013-03-19 21:25:00,31.7,28.9,30.19,SSW,203,1.6,1.6,89,0.00,,,0.21,WUHU216HW,2013-03-20 02:25:00,
2013-03-19 21:30:00,31.7,28.9,30.19,SW,225,1.8,2.0,89,0.00,,,0.21,WUHU216HW,2013-03-20 02:30:00,
2013-03-19 21:35:00,32.0,29.3,30.19,SW,225,3.6,3.8,89,0.00,,,0.21,WUHU216HW,2013-03-20 02:35:00,
2013-03-19 21:40:00,32.0,29.5,30.19,SW,225,2.2,3.8,90,0.00,,,0.21,WUHU216HW,2013-03-20 02:40:00,
2013-03-19 21:45:00,32.4,29.9,30.19,SW,225,2.5,2.9,90,0.00,,,0.21,WUHU216HW,2013-03-20 02:45:00,
2013-03-19 21:50:00,32.6,30.2,30.19,SW,225,1.1,2.5,91,0.00,,,0.21,WUHU216HW,2013-03-20 02:50:00,
2013-03-19 21:55:00,32.8,30.4,30.19,WSW,248,1.1,2.5,91,0.00,,,0.21,WUHU216HW,2013-03-20 02:55:00,
2013-03-19 22:00:00,32.8,30.4,30.20,WSW,248,2.0,2.0,91,0.00,,,0.21,WUHU216HW,2013-03-20 03:00:00,
2013-03-19 22:05:00,32.8,30.4,30.20,WSW,248,1.1,2.0,91,0.00,,,0.21,WUHU216HW,2013-03-20 03:05:00,
2013-03-19 22:10:00,32.4,30.1,30.21,West,270,1.1,2.0,91,0.00,,,0.21,WUHU216HW,2013-03-20 03:10:00,
2013-03-19 22:15:00,32.0,30.1,30.20,West,270,1.3,2.0,92,0.00,,,0.21,WUHU216HW,2013-03-20 03:15:00,
2013-03-19 22:20:00,32.0,30.1,30.20,WNW,293,1.1,2.5,92,0.00,,,0.21,WUHU216HW,2013-03-20 03:20:00,
2013-03-19 22:25:00,32.4,30.3,30.20,WSW,248,1.8,2.5,92,0.00,,,0.21,WUHU216HW,2013-03-20 03:25:00,
2013-03-19 22:30:00,32.2,30.2,30.20,WSW,248,0.9,2.5,92,0.00,,,0.21,WUHU216HW,2013-03-20 03:30:00,
2013-03-19 22:35:00,32.0,30.1,30.20,WSW,248,2.5,2.5,92,0.00,,,0.21,WUHU216HW,2013-03-20 03:35:00,
2013-03-19 22:40:00,31.9,29.6,30.20,SW,225,2.5,3.1,91,0.00,,,0.21,WUHU216HW,2013-03-20 03:40:00,
2013-03-19 22:45:00,31.7,29.4,30.20,SW,225,3.6,3.6,91,0.00,,,0.21,WUHU216HW,2013-03-20 03:45:00,
2013-03-19 22:50:00,31.7,29.4,30.19,WSW,248,3.6,4.0,91,0.00,,,0.21,WUHU216HW,2013-03-20 03:50:00,
2013-03-19 22:55:00,31.7,29.4,30.19,SW,225,1.8,4.0,91,0.00,,,0.21,WUHU216HW,2013-03-20 03:55:00,
2013-03-19 23:00:00,31.7,29.4,30.19,WSW,248,2.9,3.6,91,0.00,,,0.21,WUHU216HW,2013-03-20 04:00:00,
2013-03-19 23:05:00,31.7,29.4,30.18,SW,225,4.7,4.7,91,0.00,,,0.21,WUHU216HW,2013-03-20 04:05:00,
2013-03-19 23:10:00,31.7,29.4,30.18,SSW,203,1.8,4.7,91,0.00,,,0.21,WUHU216HW,2013-03-20 04:10:00,
2013-03-19 23:15:00,32.0,29.8,30.18,WSW,248,1.8,4.7,91,0.00,,,0.21,WUHU216HW,2013-03-20 04:15:00,
2013-03-19 23:20:00,32.0,30.1,30.17,WSW,248,0.7,2.2,92,0.00,,,0.21,WUHU216HW,2013-03-20 04:20:00,
2013-03-19 23:25:00,32.6,30.5,30.18,West,270,4.3,5.6,92,0.00,,,0.21,WUHU216HW,2013-03-20 04:25:00,
2013-03-19 23:30:00,33.7,31.5,30.18,NNW,338,2.5,5.6,92,0.00,,,0.21,WUHU216HW,2013-03-20 04:30:00,
2013-03-19 23:35:00,33.7,31.5,30.19,NW,315,1.6,3.6,92,0.00,,,0.21,WUHU216HW,2013-03-20 04:35:00,
2013-03-19 23:40:00,33.5,31.3,30.19,NW,315,1.1,3.6,92,0.00,,,0.21,WUHU216HW,2013-03-20 04:40:00,
2013-03-19 23:45:00,33.1,31.1,30.19,North,0,0.0,2.2,92,0.00,,,0.21,WUHU216HW,2013-03-20 04:45:00,
2013-03-19 23:50:00,32.8,30.7,30.19,North,0,0.0,1.1,92,0.00,,,0.21,WUHU216HW,2013-03-20 04:50:00,
2013-03-19 23:55:00,32.0,30.1,30.19,North,0,0.0,0.0,92,0.00,,,0.21,WUHU216HW,2013-03-20 04:55:00,